Time;durP1;ratioP1;P1;durP2;ratioP2;P2;SDS_P1;SDS_P2;PMS_P1;PMS_P2;Temp;Humidity;BMP_temperature;BMP_pressure;BME280_temperature;BME280_humidity;BME280_pressure;Samples;Min_cycle;Max_cycle;Signal;HPM_P1;HPM_P2
2021/06/01 00:01:11;;;;;;;5.00;2.25;;;15.60;48.60;;;;;;5053769;28;20110;-35
2021/06/01 00:03:37;;;;;;;3.47;1.75;;;15.50;48.70;;;;;;5053749;28;20595;-35
2021/06/01 00:06:02;;;;;;;4.60;2.40;;;15.30;49.10;;;;;;5054019;28;20029;-35
2021/06/01 00:08:29;;;;;;;3.50;2.00;;;15.30;49.30;;;;;;5053812;28;20029;-35
2021/06/01 00:10:55;;;;;;;4.88;2.30;;;15.30;49.50;;;;;;5053725;28;20037;-36
2021/06/01 00:13:20;;;;;;;3.40;2.00;;;15.30;49.60;;;;;;5053679;28;20017;-36
2021/06/01 00:15:46;;;;;;;10.85;2.63;;;15.50;49.60;;;;;;5053661;28;20037;-35
2021/06/01 00:18:12;;;;;;;5.63;2.50;;;15.50;49.60;;;;;;5035978;28;20025;-35
2021/06/01 00:20:37;;;;;;;3.88;2.97;;;15.30;49.70;;;;;;5053588;28;20021;-35
2021/06/01 00:23:03;;;;;;;3.25;2.28;;;15.20;50.40;;;;;;5053391;28;20063;-35
2021/06/01 00:25:29;;;;;;;4.75;2.05;;;15.00;50.90;;;;;;5053271;28;20434;-35
2021/06/01 00:27:54;;;;;;;3.63;2.10;;;15.10;50.70;;;;;;5053273;28;20131;-37
2021/06/01 00:30:20;;;;;;;5.65;2.10;;;15.00;50.80;;;;;;5053467;28;20057;-35
2021/06/01 00:32:46;;;;;;;5.30;2.50;;;15.00;51.10;;;;;;5054128;28;20029;-35
2021/06/01 00:35:12;;;;;;;2.75;1.63;;;15.00;51.20;;;;;;5054042;28;20029;-36
2021/06/01 00:37:38;;;;;;;2.42;2.17;;;14.90;51.20;;;;;;5053138;28;20100;-36
2021/06/01 00:40:04;;;;;;;8.07;2.63;;;14.80;51.60;;;;;;5035226;28;20149;-35
2021/06/01 00:42:30;;;;;;;3.40;1.92;;;14.80;51.80;;;;;;5053114;28;20538;-36
2021/06/01 00:44:55;;;;;;;6.93;2.65;;;14.80;52.30;;;;;;5035288;28;20116;-37
2021/06/01 00:47:21;;;;;;;5.95;2.20;;;14.70;52.50;;;;;;5035310;28;20473;-36
2021/06/01 00:49:47;;;;;;;8.82;2.08;;;14.70;52.70;;;;;;5053237;28;20151;-35
2021/06/01 00:52:13;;;;;;;3.90;2.53;;;14.60;52.80;;;;;;5053490;28;20025;-35
2021/06/01 00:54:38;;;;;;;8.02;2.33;;;14.60;52.90;;;;;;5053455;28;20021;-35
2021/06/01 00:57:06;;;;;;;5.80;2.58;;;14.60;53.10;;;;;;5053364;28;20021;-35
2021/06/01 00:59:32;;;;;;;5.35;2.20;;;14.50;53.50;;;;;;5053477;28;20375;-34
2021/06/01 01:01:58;;;;;;;5.13;2.05;;;14.50;53.60;;;;;;5035257;28;20040;-35
2021/06/01 01:04:26;;;;;;;3.22;1.75;;;14.40;53.90;;;;;;5053411;28;20029;-35
2021/06/01 01:07:03;;;;;;;5.15;2.20;;;14.30;54.20;;;;;;5053239;28;20420;-35
2021/06/01 01:09:32;;;;;;;6.78;3.00;;;14.30;54.30;;;;;;5053092;28;20484;-36
2021/06/01 01:12:05;;;;;;;3.22;2.15;;;14.30;54.70;;;;;;5053135;28;20052;-36
2021/06/01 01:14:36;;;;;;;6.30;2.90;;;14.20;54.80;;;;;;5035001;28;20021;-37
2021/06/01 01:17:07;;;;;;;5.18;2.42;;;14.20;55.20;;;;;;5053141;28;20041;-45
2021/06/01 01:20:04;;;;;;;5.18;2.22;;;14.10;55.40;;;;;;5034929;28;20025;-35
2021/06/01 01:22:32;;;;;;;4.10;2.75;;;14.10;55.40;;;;;;5053117;28;20083;-35
2021/06/01 01:24:58;;;;;;;4.05;2.35;;;14.20;55.40;;;;;;5035692;28;20036;-36
2021/06/01 01:27:32;;;;;;;4.00;1.98;;;14.30;55.70;;;;;;5038333;28;20049;-35
2021/06/01 01:30:02;;;;;;;5.55;2.35;;;14.20;55.50;;;;;;5056826;28;20029;-35
2021/06/01 01:32:41;;;;;;;4.30;2.05;;;14.20;55.70;;;;;;5056747;28;20021;-35
2021/06/01 01:35:09;;;;;;;6.72;2.78;;;14.10;56.20;;;;;;5056383;28;20033;-35
2021/06/01 01:37:37;;;;;;;7.00;2.42;;;14.10;56.30;;;;;;5056100;28;20032;-36
2021/06/01 01:40:07;;;;;;;13.18;3.80;;;14.10;56.00;;;;;;5056155;28;20126;-36
2021/06/01 01:42:42;;;;;;;6.68;2.65;;;14.00;56.50;;;;;;5056862;28;20516;-35
2021/06/01 01:45:21;;;;;;;6.00;2.90;;;13.80;56.90;;;;;;5056336;28;20423;-35
2021/06/01 01:50:20;;;;;;;8.10;2.78;;;13.80;57.20;;;;;;5056343;28;20029;-35
2021/06/01 01:52:46;;;;;;;5.43;2.58;;;13.80;57.40;;;;;;5038405;28;20481;-36
2021/06/01 01:55:15;;;;;;;6.88;2.67;;;13.80;57.70;;;;;;5056269;28;20017;-35
2021/06/01 01:57:46;;;;;;;3.65;2.55;;;13.70;57.90;;;;;;5056119;28;20365;-35
2021/06/01 02:00:15;;;;;;;3.13;2.25;;;13.70;58.00;;;;;;5037848;28;20035;-36
2021/06/01 02:02:44;;;;;;;4.90;2.60;;;13.60;58.50;;;;;;5055753;28;20025;-34
2021/06/01 02:05:10;;;;;;;4.05;2.72;;;13.50;58.70;;;;;;5055668;28;20021;-36
2021/06/01 02:07:36;;;;;;;6.13;2.42;;;13.60;59.00;;;;;;5038080;28;20033;-36
2021/06/01 02:10:06;;;;;;;9.02;2.85;;;13.60;58.90;;;;;;5055405;28;20041;-35
2021/06/01 02:12:32;;;;;;;5.35;2.75;;;13.50;58.90;;;;;;5055569;28;20027;-35
2021/06/01 02:14:58;;;;;;;4.63;2.80;;;13.50;59.00;;;;;;5055549;28;20108;-35
2021/06/01 02:17:23;;;;;;;9.07;3.03;;;13.50;59.50;;;;;;5056025;28;20460;-34
2021/06/01 02:19:49;;;;;;;5.85;2.65;;;13.40;59.60;;;;;;5055755;28;20029;-34
2021/06/01 02:22:27;;;;;;;4.40;2.53;;;13.40;59.70;;;;;;5056117;28;20059;-35
2021/06/01 02:25:01;;;;;;;6.28;2.67;;;13.30;59.60;;;;;;5056066;28;20032;-34
2021/06/01 02:28:01;;;;;;;6.47;2.50;;;13.40;59.30;;;;;;5055499;28;20146;-35
2021/06/01 02:30:37;;;;;;;4.93;3.23;;;13.30;59.50;;;;;;5055909;28;20366;-35
2021/06/01 02:33:05;;;;;;;4.13;2.88;;;13.30;59.90;;;;;;5056181;28;20025;-35
2021/06/01 02:35:35;;;;;;;4.53;3.05;;;13.20;60.00;;;;;;5037953;28;20079;-35
2021/06/01 02:38:03;;;;;;;5.05;3.00;;;13.20;60.10;;;;;;5056104;28;20031;-34
2021/06/01 02:40:30;;;;;;;4.93;3.05;;;13.20;60.00;;;;;;5037910;28;20028;-34
2021/06/01 02:42:58;;;;;;;5.82;3.00;;;13.20;60.00;;;;;;5037802;28;20428;-35
2021/06/01 02:45:25;;;;;;;4.70;2.90;;;13.20;60.50;;;;;;5055658;28;20104;-35
2021/06/01 02:47:52;;;;;;;7.03;3.13;;;13.10;60.30;;;;;;5055424;28;20025;-35
2021/06/01 02:50:18;;;;;;;6.05;3.45;;;13.20;60.20;;;;;;5037741;28;20059;-37
2021/06/01 02:52:47;;;;;;;7.90;3.80;;;13.20;60.20;;;;;;5055512;28;20488;-36
2021/06/01 02:55:17;;;;;;;11.10;3.22;;;13.10;60.40;;;;;;5054995;28;20025;-37
2021/06/01 02:57:44;;;;;;;5.93;3.60;;;13.10;60.50;;;;;;5055126;28;20021;-35
2021/06/01 03:00:15;;;;;;;6.55;2.88;;;13.00;60.90;;;;;;5054904;28;20036;-36
2021/06/01 03:02:42;;;;;;;8.73;3.17;;;12.90;61.20;;;;;;5054996;28;20377;-35
2021/06/01 03:05:09;;;;;;;8.30;3.60;;;12.90;61.20;;;;;;5055113;28;20025;-34
2021/06/01 03:07:46;;;;;;;5.20;3.15;;;12.90;61.20;;;;;;5055222;28;20117;-34
2021/06/01 03:10:13;;;;;;;4.03;2.78;;;12.80;61.50;;;;;;5054515;28;20033;-34
2021/06/01 03:13:13;;;;;;;5.97;3.53;;;12.80;61.70;;;;;;5054393;28;20021;-35
2021/06/01 03:15:32;;;;;;;6.22;3.10;;;12.80;61.70;;;;;;5049508;28;20472;-36
2021/06/01 03:17:57;;;;;;;6.35;3.20;;;12.80;62.10;;;;;;5036459;28;20086;-35
2021/06/01 03:20:23;;;;;;;7.05;2.97;;;12.80;62.10;;;;;;5036327;28;20025;-35
2021/06/01 03:22:49;;;;;;;5.97;3.45;;;12.70;62.40;;;;;;5037072;28;20029;-36
2021/06/01 03:25:15;;;;;;;4.65;3.15;;;12.80;62.00;;;;;;5054169;28;20040;-35
2021/06/01 03:27:41;;;;;;;5.63;3.42;;;12.60;62.10;;;;;;5036334;28;20057;-35
2021/06/01 03:30:09;;;;;;;6.25;2.80;;;12.70;62.40;;;;;;5054264;28;20079;-35
2021/06/01 03:32:34;;;;;;;8.23;3.63;;;12.60;62.40;;;;;;5054173;28;20029;-36
2021/06/01 03:35:00;;;;;;;5.10;3.28;;;12.50;62.80;;;;;;5054731;28;20366;-36
2021/06/01 03:37:26;;;;;;;5.57;3.97;;;12.50;63.00;;;;;;5054783;28;20017;-35
2021/06/01 03:39:52;;;;;;;4.35;3.03;;;12.50;63.10;;;;;;5055487;28;20521;-35
2021/06/01 03:42:18;;;;;;;6.78;3.97;;;12.50;63.30;;;;;;5054364;28;20025;-35
2021/06/01 03:44:44;;;;;;;7.97;3.50;;;12.60;63.40;;;;;;5054608;28;20043;-35
2021/06/01 03:47:10;;;;;;;5.70;3.92;;;12.40;64.60;;;;;;5054230;28;20027;-35
2021/06/01 03:49:36;;;;;;;7.72;3.97;;;12.40;64.40;;;;;;5053933;28;20103;-34
2021/06/01 03:52:07;;;;;;;6.38;3.53;;;12.30;65.20;;;;;;5054070;28;20465;-36
2021/06/01 03:54:38;;;;;;;5.85;4.00;;;12.30;65.40;;;;;;5036022;28;20477;-36
2021/06/01 03:57:04;;;;;;;;;;;12.40;65.40;;;;;;5054590;28;20112;-35
2021/06/01 03:59:29;;;;;;;7.22;3.03;;;12.60;65.00;;;;;;5053770;28;19911;-36
2021/06/01 04:01:55;;;;;;;11.95;4.05;;;12.30;65.70;;;;;;5053951;28;20115;-35
2021/06/01 04:04:21;;;;;;;10.55;4.93;;;12.30;66.10;;;;;;5053969;28;20107;-34
2021/06/01 04:06:47;;;;;;;7.97;3.92;;;12.30;66.00;;;;;;5035847;28;20029;-36
2021/06/01 04:09:13;;;;;;;9.75;3.97;;;12.30;65.90;;;;;;5035784;28;20075;-36
2021/06/01 04:11:39;;;;;;;7.07;3.50;;;12.40;65.30;;;;;;5035686;28;20439;-35
2021/06/01 04:14:04;;;;;;;7.78;4.05;;;12.50;64.80;;;;;;5053976;28;20034;-35
2021/06/01 04:16:30;;;;;;;8.32;4.05;;;12.60;65.00;;;;;;5054102;28;20021;-35
2021/06/01 04:18:56;;;;;;;5.47;3.50;;;12.40;65.20;;;;;;5053672;28;20429;-41
2021/06/01 04:21:22;;;;;;;4.20;3.00;;;12.40;65.00;;;;;;5053699;28;20025;-35
2021/06/01 04:23:47;;;;;;;8.30;3.92;;;12.50;64.70;;;;;;5053241;28;20473;-35
2021/06/01 04:26:13;;;;;;;5.25;3.50;;;12.80;64.20;;;;;;5053111;28;20099;-35
2021/06/01 04:28:40;;;;;;;7.63;3.90;;;12.80;63.80;;;;;;5053611;28;20040;-35
2021/06/01 04:31:07;;;;;;;8.38;3.70;;;12.80;63.60;;;;;;5053228;28;20071;-35
2021/06/01 04:33:32;;;;;;;12.30;5.57;;;12.90;63.00;;;;;;5035525;28;20374;-35
2021/06/01 04:35:59;;;;;;;10.27;4.05;;;13.00;62.70;;;;;;5035767;28;20100;-35
2021/06/01 04:38:25;;;;;;;4.93;3.53;;;12.90;62.40;;;;;;5053302;28;20025;-36
2021/06/01 04:40:51;;;;;;;8.52;3.55;;;13.00;61.70;;;;;;5053441;28;20032;-36
2021/06/01 04:43:17;;;;;;;7.35;4.22;;;13.10;61.40;;;;;;5053397;28;20376;-35
2021/06/01 04:45:43;;;;;;;6.35;3.25;;;13.10;61.20;;;;;;5053203;28;20369;-35
2021/06/01 04:48:08;;;;;;;7.80;3.25;;;13.10;61.10;;;;;;5053533;28;20442;-35
2021/06/01 04:50:34;;;;;;;5.28;3.15;;;13.20;60.80;;;;;;5053126;28;20032;-35
2021/06/01 04:53:00;;;;;;;6.82;3.47;;;13.20;60.70;;;;;;5053304;28;20044;-35
2021/06/01 04:55:26;;;;;;;7.35;3.53;;;13.30;60.70;;;;;;5054197;28;20096;-36
2021/06/01 04:57:51;;;;;;;7.25;3.80;;;13.30;60.50;;;;;;5053130;28;20059;-36
2021/06/01 05:00:18;;;;;;;12.85;3.65;;;13.30;60.50;;;;;;5055043;28;20104;-35
2021/06/01 05:02:43;;;;;;;9.75;4.20;;;13.30;60.60;;;;;;5057070;28;20036;-36
2021/06/01 05:05:10;;;;;;;5.53;3.75;;;13.30;61.50;;;;;;5057393;28;20029;-35
2021/06/01 05:07:35;;;;;;;6.45;3.55;;;13.30;61.10;;;;;;5056951;28;20137;-35
2021/06/01 05:10:03;;;;;;;6.85;3.40;;;13.30;61.10;;;;;;5057188;28;20108;-35
2021/06/01 05:12:29;;;;;;;7.85;4.40;;;13.40;60.60;;;;;;5057016;28;20423;-35
2021/06/01 05:14:56;;;;;;;12.48;4.15;;;13.50;60.80;;;;;;5057391;28;20033;-35
2021/06/01 05:17:22;;;;;;;9.38;4.75;;;13.60;60.60;;;;;;5056896;28;20025;-35
2021/06/01 05:19:48;;;;;;;6.30;3.88;;;13.60;60.60;;;;;;5056553;28;20025;-35
2021/06/01 05:22:13;;;;;;;6.93;4.13;;;13.60;60.80;;;;;;5056579;28;20100;-36
2021/06/01 05:24:39;;;;;;;5.93;3.78;;;13.80;60.20;;;;;;5056544;28;20048;-35
2021/06/01 05:27:06;;;;;;;6.40;4.55;;;13.70;60.50;;;;;;5056970;28;20416;-35
2021/06/01 05:29:35;;;;;;;7.47;3.83;;;13.80;60.20;;;;;;5057079;28;20447;-35
2021/06/01 05:32:27;;;;;;;6.25;3.90;;;13.80;60.10;;;;;;5056813;28;20017;-36
2021/06/01 05:34:58;;;;;;;10.80;4.43;;;13.80;60.20;;;;;;5056983;28;20040;-36
2021/06/01 05:37:27;;;;;;;8.20;4.25;;;13.90;60.60;;;;;;5056363;28;20063;-34
2021/06/01 05:39:53;;;;;;;12.38;4.28;;;14.10;60.20;;;;;;5056312;28;20029;-36
2021/06/01 05:42:19;;;;;;;7.93;3.95;;;14.20;60.20;;;;;;5056084;28;20448;-34
2021/06/01 05:44:47;;;;;;;7.28;4.70;;;14.20;60.00;;;;;;5038252;28;20040;-36
2021/06/01 05:47:14;;;;;;;7.72;3.78;;;14.20;59.70;;;;;;5055879;28;20033;-35
2021/06/01 05:49:40;;;;;;;6.13;3.85;;;14.30;59.70;;;;;;5037620;28;20021;-36
2021/06/01 05:52:06;;;;;;;8.07;4.45;;;14.30;60.20;;;;;;5056264;28;20029;-35
2021/06/01 05:54:32;;;;;;;7.53;4.45;;;14.40;59.30;;;;;;5037888;28;20052;-35
2021/06/01 05:56:57;;;;;;;11.70;4.97;;;14.50;59.50;;;;;;5038372;28;20099;-35
2021/06/01 05:59:23;;;;;;;11.10;5.10;;;14.60;59.10;;;;;;5055781;28;20032;-36
2021/06/01 06:01:48;;;;;;;17.90;6.40;;;14.70;59.20;;;;;;5055350;28;20029;-35
2021/06/01 06:04:14;;;;;;;13.25;4.10;;;14.80;58.60;;;;;;5055563;28;20048;-47
2021/06/01 06:06:40;;;;;;;8.35;4.10;;;14.80;58.30;;;;;;5055584;28;20480;-35
2021/06/01 06:09:06;;;;;;;5.10;3.75;;;14.90;58.20;;;;;;5055605;28;20381;-40
2021/06/01 06:11:31;;;;;;;11.43;4.30;;;15.10;57.70;;;;;;5055115;28;20053;-35
2021/06/01 06:13:57;;;;;;;8.98;4.88;;;15.30;57.60;;;;;;5055520;28;20025;-36
2021/06/01 06:16:22;;;;;;;6.82;4.57;;;15.30;57.50;;;;;;5055898;28;20513;-35
2021/06/01 06:18:59;;;;;;;12.38;5.45;;;15.60;56.30;;;;;;5055756;28;20039;-35
2021/06/01 06:21:25;;;;;;;15.30;6.10;;;15.60;55.90;;;;;;5038558;28;20032;-35
2021/06/01 06:23:51;;;;;;;7.78;4.13;;;15.80;55.90;;;;;;5055229;28;20028;-35
2021/06/01 06:26:17;;;;;;;7.68;4.28;;;16.10;54.80;;;;;;5054691;28;20047;-36
2021/06/01 06:28:43;;;;;;;6.60;3.77;;;16.20;54.70;;;;;;5055598;28;20074;-35
2021/06/01 06:31:08;;;;;;;10.25;4.38;;;16.50;53.80;;;;;;5055315;28;20029;-35
2021/06/01 06:33:34;;;;;;;7.90;4.00;;;16.70;53.50;;;;;;5055240;28;20024;-36
2021/06/01 06:36:00;;;;;;;6.43;4.18;;;16.80;53.20;;;;;;5055218;28;20072;-35
2021/06/01 06:38:26;;;;;;;6.90;3.60;;;16.90;52.80;;;;;;5055330;28;20108;-35
2021/06/01 06:41:13;;;;;;;7.03;3.80;;;17.10;52.80;;;;;;5037295;28;20048;-35
2021/06/01 06:43:43;;;;;;;12.80;3.60;;;17.30;51.40;;;;;;5055072;28;20024;-37
2021/06/01 06:46:15;;;;;;;5.57;3.50;;;17.40;51.00;;;;;;5036976;28;20047;-36
2021/06/01 06:48:41;;;;;;;14.23;4.05;;;17.30;51.50;;;;;;5054833;28;20066;-36
2021/06/01 06:51:12;;;;;;;10.10;4.03;;;17.30;50.60;;;;;;5037160;28;20104;-35
2021/06/01 06:53:52;;;;;;;5.78;3.67;;;17.00;51.50;;;;;;5054982;28;20025;-35
2021/06/01 06:56:20;;;;;;;4.60;3.00;;;17.30;51.00;;;;;;5055389;28;20025;-36
2021/06/01 06:58:46;;;;;;;5.95;3.40;;;17.30;51.20;;;;;;5054895;28;20504;-36
2021/06/01 07:01:12;;;;;;;8.63;3.97;;;17.60;51.00;;;;;;5054417;28;20021;-36
2021/06/01 07:03:38;;;;;;;16.30;4.30;;;17.70;50.60;;;;;;5054554;28;20025;-35
2021/06/01 07:06:05;;;;;;;7.05;3.47;;;17.90;49.30;;;;;;5054414;28;20377;-36
2021/06/01 07:08:30;;;;;;;7.05;3.40;;;18.20;48.10;;;;;;5054035;28;20031;-36
2021/06/01 07:10:56;;;;;;;7.57;3.45;;;18.20;48.60;;;;;;5054163;28;20033;-35
2021/06/01 07:13:30;;;;;;;6.13;3.38;;;18.30;48.60;;;;;;5054565;28;20055;-36
2021/06/01 07:15:55;;;;;;;9.23;2.72;;;18.30;47.90;;;;;;5055088;28;20067;-36
2021/06/01 07:18:22;;;;;;;10.27;3.28;;;18.30;47.80;;;;;;5054366;28;20426;-37
2021/06/01 07:20:47;;;;;;;5.25;3.70;;;18.70;47.40;;;;;;5053951;28;20076;-36
2021/06/01 07:23:13;;;;;;;7.63;3.53;;;19.00;47.10;;;;;;5053860;28;20033;-37
2021/06/01 07:25:39;;;;;;;6.72;3.15;;;19.10;46.60;;;;;;5035748;28;20025;-36
2021/06/01 07:28:04;;;;;;;6.65;3.10;;;19.30;45.30;;;;;;5053489;28;20497;-36
2021/06/01 07:30:31;;;;;;;12.75;3.15;;;19.60;45.20;;;;;;5054543;28;20061;-35
2021/06/01 07:32:59;;;;;;;8.13;4.07;;;20.00;44.20;;;;;;5035754;28;20112;-38
2021/06/01 07:35:25;;;;;;;6.05;4.00;;;20.40;43.90;;;;;;5053574;28;20481;-36
2021/06/01 07:37:52;;;;;;;7.25;3.75;;;20.40;44.20;;;;;;5053489;28;20051;-36
2021/06/01 07:40:19;;;;;;;6.45;3.17;;;20.80;42.50;;;;;;5053584;28;20124;-36
2021/06/01 07:42:45;;;;;;;8.38;3.85;;;20.80;42.60;;;;;;5053431;28;20424;-35
2021/06/01 07:45:11;;;;;;;7.00;3.40;;;21.20;42.30;;;;;;5053751;28;20029;-36
2021/06/01 07:47:37;;;;;;;6.03;3.10;;;22.00;41.00;;;;;;5053369;28;20028;-36
2021/06/01 07:50:04;;;;;;;10.48;3.45;;;22.30;39.70;;;;;;5053497;28;20108;-37
2021/06/01 07:52:31;;;;;;;7.05;3.17;;;22.60;39.30;;;;;;5054766;28;20021;-35
2021/06/01 07:54:57;;;;;;;16.70;3.63;;;22.20;40.50;;;;;;5036131;28;20435;-36
2021/06/01 07:57:24;;;;;;;7.38;3.78;;;22.20;39.70;;;;;;5052968;28;20028;-36
2021/06/01 07:59:50;;;;;;;8.85;3.08;;;22.50;39.60;;;;;;5052904;28;20033;-35
2021/06/01 08:02:16;;;;;;;7.10;2.80;;;22.60;38.30;;;;;;5052696;28;20051;-37
2021/06/01 08:04:41;;;;;;;4.82;2.85;;;22.80;37.00;;;;;;5052714;28;20024;-35
2021/06/01 08:07:11;;;;;;;6.93;2.30;;;22.60;37.10;;;;;;5052671;28;20107;-38
2021/06/01 08:09:37;;;;;;;3.70;2.80;;;22.70;36.90;;;;;;5052759;28;20029;-35
2021/06/01 08:12:04;;;;;;;5.38;3.22;;;23.30;37.80;;;;;;5052892;28;20057;-37
2021/06/01 08:14:30;;;;;;;5.32;2.78;;;23.70;37.00;;;;;;5053289;28;20377;-37
2021/06/01 08:16:56;;;;;;;4.68;2.33;;;24.10;35.60;;;;;;5052794;28;20025;-36
2021/06/01 08:19:27;;;;;;;9.40;3.67;;;23.60;36.70;;;;;;5052413;28;20032;-36
2021/06/01 08:22:09;;;;;;;5.82;2.80;;;23.00;37.00;;;;;;5052498;28;20414;-41
2021/06/01 08:24:36;;;;;;;5.78;3.00;;;23.50;37.00;;;;;;5052286;28;20496;-36
2021/06/01 08:27:02;;;;;;;6.78;3.10;;;24.40;35.00;;;;;;5051741;28;20414;-39
2021/06/01 08:29:28;;;;;;;5.57;2.85;;;24.50;35.10;;;;;;5052770;28;20017;-36
2021/06/01 08:31:54;;;;;;;9.15;4.95;;;24.10;35.10;;;;;;5052775;28;20071;-37
2021/06/01 08:34:19;;;;;;;6.28;4.00;;;24.80;33.60;;;;;;5052553;28;20021;-35
2021/06/01 08:36:45;;;;;;;11.10;3.15;;;23.90;36.20;;;;;;5052435;28;20524;-37
2021/06/01 08:39:11;;;;;;;7.28;3.42;;;23.70;35.70;;;;;;5051923;28;20021;-36
2021/06/01 08:41:38;;;;;;;4.00;2.65;;;24.10;35.60;;;;;;5034333;28;20035;-36
2021/06/01 08:44:05;;;;;;;5.60;2.75;;;24.20;35.00;;;;;;5052264;28;20040;-36
2021/06/01 08:46:33;;;;;;;4.47;2.65;;;24.50;33.40;;;;;;5052304;28;20028;-37
2021/06/01 08:48:59;;;;;;;6.07;2.85;;;24.70;32.10;;;;;;5052303;28;20021;-36
2021/06/01 08:51:26;;;;;;;4.95;2.00;;;24.50;32.80;;;;;;5052324;28;20025;-36
2021/06/01 08:53:55;;;;;;;5.68;2.00;;;24.80;31.00;;;;;;5017666;28;20025;-36
2021/06/01 08:56:21;;;;;;;6.13;1.90;;;25.20;30.30;;;;;;5052596;28;20040;-37
2021/06/01 08:58:49;;;;;;;4.18;2.05;;;25.00;30.60;;;;;;5052155;28;20032;-37
2021/06/01 09:01:19;;;;;;;4.03;2.13;;;25.10;30.90;;;;;;5034534;28;20025;-37
2021/06/01 09:03:49;;;;;;;4.53;2.47;;;25.30;28.30;;;;;;5052049;28;20025;-37
2021/06/01 09:22:33;;;;;;;2.80;1.98;;;25.30;28.30;;;;;;5053560;28;20431;-37
2021/06/01 09:25:06;;;;;;;5.38;2.97;;;25.40;29.20;;;;;;5051808;28;20036;-36
2021/06/01 09:27:53;;;;;;;4.32;2.75;;;24.50;29.10;;;;;;5051593;28;20116;-36
2021/06/01 09:30:37;;;;;;;4.53;2.45;;;26.20;28.20;;;;;;5034439;28;20032;-36
2021/06/01 09:33:05;;;;;;;2.78;2.28;;;26.50;28.10;;;;;;5052597;28;20473;-36
2021/06/01 09:35:44;;;;;;;8.30;1.88;;;25.20;29.00;;;;;;5051947;28;20025;-37
2021/06/01 09:38:11;;;;;;;2.58;2.03;;;25.10;29.20;;;;;;5054234;28;20071;-42
2021/06/01 09:40:38;;;;;;;2.67;1.90;;;25.60;28.70;;;;;;5052047;28;20104;-37
2021/06/01 09:43:13;;;;;;;6.97;2.78;;;25.50;29.10;;;;;;5051728;28;20021;-38
2021/06/01 09:45:40;;;;;;;5.03;2.65;;;25.80;28.50;;;;;;5052502;28;20056;-38
2021/06/01 09:48:10;;;;;;;4.60;2.38;;;25.20;29.50;;;;;;5043446;28;20029;-39
2021/06/01 09:55:49;;;;;;;4.85;2.50;;;25.70;29.10;;;;;;5055456;28;20031;-39
2021/06/01 09:58:24;;;;;;;2.47;2.03;;;25.50;29.80;;;;;;5037132;28;20111;-36
2021/06/01 10:00:50;;;;;;;3.28;2.03;;;26.00;28.60;;;;;;5055649;28;20036;-36
2021/06/01 10:03:21;;;;;;;3.03;2.25;;;26.30;28.80;;;;;;5055313;28;20073;-36
2021/06/01 10:05:56;;;;;;;6.00;2.65;;;26.50;28.20;;;;;;5055260;28;20156;-36
2021/06/01 10:08:26;;;;;;;6.70;2.72;;;26.40;28.50;;;;;;5055373;28;20072;-37
2021/06/01 10:10:57;;;;;;;5.95;2.78;;;26.40;28.50;;;;;;5055287;28;20037;-36
2021/06/01 10:13:24;;;;;;;6.75;2.15;;;26.70;27.80;;;;;;5054846;28;20044;-36
2021/06/01 10:15:55;;;;;;;4.05;2.25;;;26.70;28.30;;;;;;5055603;28;20043;-37
2021/06/01 10:18:21;;;;;;;4.00;2.63;;;26.20;28.60;;;;;;5055829;28;20021;-38
2021/06/01 10:20:50;;;;;;;3.90;2.50;;;26.40;28.60;;;;;;5054967;28;20404;-36
2021/06/01 10:23:23;;;;;;;7.10;2.70;;;26.80;27.80;;;;;;5020945;28;20040;-37
2021/06/01 10:25:49;;;;;;;4.22;3.40;;;27.00;27.60;;;;;;5054541;28;20110;-37
2021/06/01 10:28:23;;;;;;;3.42;2.30;;;26.50;27.90;;;;;;5054331;28;20144;-36
2021/06/01 10:30:49;;;;;;;4.43;3.05;;;26.20;28.60;;;;;;5054747;28;20469;-36
2021/06/01 10:33:18;;;;;;;3.17;2.17;;;26.70;28.40;;;;;;5054298;28;20460;-36
2021/06/01 10:36:09;;;;;;;4.78;2.50;;;27.30;27.20;;;;;;5054353;28;20025;-36
2021/06/01 10:52:22;;;;;;;5.88;2.42;;;27.90;26.50;;;;;;5054711;28;20108;-36
2021/06/01 10:54:55;;;;;;;4.65;2.42;;;27.30;26.50;;;;;;5054384;28;20100;-36
2021/06/01 10:57:21;;;;;;;7.68;2.35;;;27.00;28.10;;;;;;5053722;28;20052;-35
2021/06/01 11:02:27;;;;;;;6.70;2.22;;;27.30;27.50;;;;;;5054664;28;20519;-37
2021/06/01 11:05:17;;;;;;;3.58;2.47;;;26.80;27.70;;;;;;5036114;28;20024;-37
2021/06/01 11:07:58;;;;;;;4.05;2.75;;;26.40;28.10;;;;;;5054135;28;20033;-37
2021/06/01 11:10:38;;;;;;;3.13;2.35;;;26.50;28.50;;;;;;5054276;28;20377;-36
2021/06/01 11:13:05;;;;;;;2.45;2.00;;;26.50;27.80;;;;;;5054148;28;20029;-36
2021/06/01 11:15:33;;;;;;;4.20;2.53;;;27.10;27.40;;;;;;5054255;28;20052;-36
2021/06/01 11:18:27;;;;;;;3.72;2.38;;;27.70;26.60;;;;;;5053946;28;20024;-37
2021/06/01 11:21:01;;;;;;;2.50;1.98;;;28.30;25.80;;;;;;5053665;28;20040;-37
2021/06/01 11:23:42;;;;;;;4.05;2.42;;;28.80;25.60;;;;;;5054005;28;20525;-37
2021/06/01 11:34:40;;;;;;;6.45;2.50;;;27.80;26.50;;;;;;5053879;28;20075;-36
2021/06/01 11:37:24;;;;;;;3.30;2.10;;;28.00;26.10;;;;;;5035840;28;20072;-35
2021/06/01 11:42:52;;;;;;;3.92;2.50;;;27.10;27.10;;;;;;5054164;28;20040;-36
2021/06/01 11:45:22;;;;;;;3.17;1.95;;;27.40;27.10;;;;;;5053706;28;20063;-38
2021/06/01 11:47:56;;;;;;;2.85;2.15;;;28.00;26.10;;;;;;5053499;28;20111;-36
2021/06/01 11:53:14;;;;;;;4.47;1.77;;;27.90;26.70;;;;;;5053694;28;20032;-36
2021/06/01 11:55:57;;;;;;;3.17;2.20;;;28.50;25.80;;;;;;5053357;28;20032;-37
2021/06/01 12:04:17;;;;;;;3.05;1.90;;;28.80;25.00;;;;;;5053548;28;20036;-36
2021/06/01 12:12:41;;;;;;;6.18;2.45;;;29.60;24.10;;;;;;5053041;28;20115;-37
2021/06/01 12:18:13;;;;;;;3.83;2.10;;;28.80;25.00;;;;;;5053856;28;20547;-36
2021/06/01 12:20:40;;;;;;;4.50;2.30;;;28.20;25.90;;;;;;5054030;28;20028;-37
2021/06/01 12:23:25;;;;;;;4.15;2.42;;;27.70;26.20;;;;;;5035777;28;20036;-38
2021/06/01 12:26:25;;;;;;;10.02;2.17;;;27.20;27.10;;;;;;5053563;28;20040;-36
2021/06/01 12:32:01;;;;;;;3.28;1.85;;;27.70;26.20;;;;;;5052926;28;19961;-37
2021/06/01 12:43:03;;;;;;;4.57;2.03;;;27.70;26.00;;;;;;5054031;28;20035;-36
2021/06/01 13:39:29;;;;;;;3.20;1.90;;;28.70;25.30;;;;;;5056678;28;20036;-37
2021/06/01 13:47:21;;;;;;;3.13;2.13;;;28.80;26.00;;;;;;5055921;28;20047;-36
2021/06/01 13:49:51;;;;;;;4.40;2.22;;;28.60;26.40;;;;;;5039016;28;20077;-36
2021/06/01 13:58:16;;;;;;;3.03;1.95;;;29.80;23.40;;;;;;5056423;28;20051;-37
2021/06/01 14:20:08;;;;;;;4.63;1.70;;;29.20;24.90;;;;;;5056056;28;20435;-36
2021/06/01 16:33:03;;;;;;;4.63;3.63;;;27.00;25.40;;;;;;5052902;28;20048;-35
2021/06/01 16:44:03;;;;;;;4.78;2.38;;;29.10;23.00;;;;;;5053641;28;20431;-36
2021/06/01 17:03:13;;;;;;;5.22;1.60;;;26.20;26.10;;;;;;5019123;28;20032;-36
2021/06/01 17:05:44;;;;;;;5.03;1.90;;;26.00;26.20;;;;;;5057575;28;20032;-36
2021/06/01 17:13:43;;;;;;;2.88;1.73;;;24.90;28.10;;;;;;5057338;28;20096;-35
2021/06/01 17:16:16;;;;;;;5.25;1.55;;;24.80;29.00;;;;;;5057721;28;20071;-36
2021/06/01 17:21:48;;;;;;;4.03;1.65;;;24.80;29.00;;;;;;5056638;28;20456;-38
2021/06/01 17:35:12;;;;;;;2.17;1.98;;;24.40;27.60;;;;;;5056460;28;20075;-36
2021/06/01 17:37:38;;;;;;;2.05;1.60;;;24.50;27.70;;;;;;5038319;28;20027;-35
2021/06/01 17:40:06;;;;;;;3.17;1.83;;;24.50;27.60;;;;;;5056446;28;20096;-36
2021/06/01 17:42:32;;;;;;;2.55;2.08;;;24.50;27.70;;;;;;5056280;28;20070;-36
2021/06/01 17:45:02;;;;;;;6.45;1.33;;;24.50;27.90;;;;;;5039047;28;20426;-36
2021/06/01 17:47:33;;;;;;;2.63;1.50;;;24.50;27.70;;;;;;5056425;28;20441;-37
2021/06/01 17:50:02;;;;;;;2.55;1.42;;;24.60;28.10;;;;;;5056717;28;20029;-36
2021/06/01 17:52:30;;;;;;;3.22;1.42;;;24.50;28.10;;;;;;5056894;28;20059;-35
2021/06/01 17:54:57;;;;;;;3.80;1.27;;;24.40;28.40;;;;;;5056618;28;20032;-44
2021/06/01 17:57:26;;;;;;;5.18;1.13;;;24.40;28.20;;;;;;5055969;28;20032;-35
2021/06/01 17:59:53;;;;;;;2.97;2.00;;;24.30;27.70;;;;;;5056491;28;20368;-35
2021/06/01 18:02:19;;;;;;;2.25;1.55;;;24.30;27.30;;;;;;5056199;28;20029;-35
2021/06/01 18:04:48;;;;;;;3.75;1.38;;;24.20;27.20;;;;;;5056439;28;20021;-37
2021/06/01 18:07:20;;;;;;;6.35;1.30;;;24.30;26.50;;;;;;5055849;28;20465;-37
2021/06/01 19:02:10;;;;;;;6.05;1.80;;;23.00;31.30;;;;;;5055645;28;20081;-36
2021/06/01 19:50:24;;;;;;;2.10;1.90;;;21.80;34.50;;;;;;5054204;28;20529;-36
2021/06/01 19:52:53;;;;;;;2.92;1.92;;;21.70;34.70;;;;;;5053806;28;20071;-36
2021/06/01 19:55:21;;;;;;;3.10;2.00;;;21.70;35.00;;;;;;5036941;28;20025;-35
2021/06/01 19:57:49;;;;;;;4.03;1.92;;;21.70;35.10;;;;;;5036179;28;20097;-36
2021/06/01 20:00:15;;;;;;;3.00;1.98;;;21.50;35.50;;;;;;5036015;28;20084;-36
2021/06/01 20:02:41;;;;;;;5.00;2.00;;;21.50;35.70;;;;;;5054086;28;20484;-36
2021/06/01 20:05:10;;;;;;;5.97;2.05;;;21.50;35.90;;;;;;5053510;28;20036;-36
2021/06/01 20:07:36;;;;;;;3.72;1.90;;;21.40;36.10;;;;;;5053762;28;20032;-35
2021/06/01 20:10:05;;;;;;;3.03;2.25;;;21.40;36.30;;;;;;5035606;28;20021;-36
2021/06/01 20:12:31;;;;;;;2.47;1.98;;;21.40;36.30;;;;;;5053840;28;20053;-35